createdAt,value
2017-03-17T00:00:17.223Z,81.70
2017-03-17T00:01:16.127Z,82.00
2017-03-17T00:02:15.111Z,82.10
2017-03-17T00:03:14.310Z,82.10
2017-03-17T00:04:13.293Z,82.00
2017-03-17T00:05:12.293Z,82.00
2017-03-17T00:06:11.236Z,82.20
2017-03-17T00:07:09.718Z,82.20
2017-03-17T00:08:08.614Z,82.00
2017-03-17T00:09:08.195Z,81.90
2017-03-17T00:10:07.513Z,82.20
2017-03-17T00:11:06.528Z,82.30
2017-03-17T00:12:05.476Z,82.50
2017-03-17T00:13:04.378Z,82.50
2017-03-17T00:14:02.921Z,82.50
2017-03-17T00:15:02.204Z,82.40
2017-03-17T00:16:01.134Z,82.30
2017-03-17T00:16:59.676Z,82.30
2017-03-17T00:17:58.594Z,82.40
2017-03-17T00:18:57.499Z,82.30
2017-03-17T00:19:56.475Z,82.20
2017-03-17T00:20:55.684Z,82.30
2017-03-17T00:21:54.628Z,82.50
2017-03-17T00:22:53.572Z,82.50
2017-03-17T00:23:52.476Z,82.40
2017-03-17T00:24:51.396Z,82.40
2017-03-17T00:25:50.299Z,82.50
2017-03-17T00:26:49.584Z,82.60
2017-03-17T00:27:48.878Z,82.60
2017-03-17T00:28:47.805Z,82.60
2017-03-17T00:29:46.728Z,82.40
2017-03-17T00:30:45.662Z,82.40
2017-03-17T00:31:44.810Z,82.40
2017-03-17T00:32:44.099Z,82.40
2017-03-17T00:33:43.030Z,82.50
2017-03-17T00:34:41.920Z,82.50
2017-03-17T00:35:40.848Z,82.50
2017-03-17T00:36:39.826Z,82.50
2017-03-17T00:37:38.750Z,82.60
2017-03-17T00:38:38.021Z,82.60
2017-03-17T00:39:36.911Z,82.60
2017-03-17T00:40:35.449Z,82.60
2017-03-17T00:41:33.982Z,82.70
2017-03-17T00:42:32.870Z,82.70
2017-03-17T00:43:31.795Z,82.70
2017-03-17T00:44:30.647Z,82.70
2017-03-17T00:45:29.548Z,82.90
2017-03-17T00:46:28.293Z,82.90
2017-03-17T00:47:27.171Z,83.10
2017-03-17T00:48:26.051Z,83.10
2017-03-17T00:49:24.975Z,83.00
2017-03-17T00:50:24.140Z,83.00
2017-03-17T00:51:23.041Z,82.90
2017-03-17T00:52:21.955Z,83.10
2017-03-17T00:53:20.844Z,83.20
2017-03-17T00:54:19.776Z,83.30
2017-03-17T00:55:18.709Z,83.30
2017-03-17T00:56:17.949Z,83.30
2017-03-17T00:57:16.836Z,83.30
2017-03-17T00:58:15.776Z,83.20
2017-03-17T00:59:14.675Z,83.20
2017-03-17T01:00:13.200Z,83.20
2017-03-17T01:01:12.144Z,83.10
2017-03-17T01:02:11.007Z,83.10
2017-03-17T01:03:10.068Z,83.40
2017-03-17T01:04:08.976Z,83.50
2017-03-17T01:05:07.916Z,83.40
2017-03-17T01:06:06.840Z,83.50
2017-03-17T01:07:05.816Z,83.50
2017-03-17T01:08:05.004Z,83.40
2017-03-17T01:09:04.084Z,83.50
2017-03-17T01:10:02.959Z,83.50
2017-03-17T01:11:01.904Z,83.40
2017-03-17T01:12:00.837Z,83.50
2017-03-17T01:12:59.751Z,83.60
2017-03-17T01:13:59.036Z,83.60
2017-03-17T01:14:57.956Z,83.60
2017-03-17T01:15:56.900Z,83.70
2017-03-17T01:16:55.780Z,83.60
2017-03-17T01:17:54.288Z,83.70
2017-03-17T01:18:53.222Z,83.50
2017-03-17T01:19:52.501Z,83.60
2017-03-17T01:20:51.407Z,83.70
2017-03-17T01:21:50.292Z,83.60
2017-03-17T01:22:48.801Z,83.60
2017-03-17T01:23:47.714Z,83.50
2017-03-17T01:24:46.253Z,83.50
2017-03-17T01:25:45.448Z,83.40
2017-03-17T01:26:44.358Z,83.40
2017-03-17T01:27:43.719Z,83.30
2017-03-17T01:28:42.232Z,83.30
2017-03-17T01:29:40.744Z,83.40
2017-03-17T01:30:39.657Z,83.40
2017-03-17T01:31:38.958Z,83.40
2017-03-17T01:32:37.872Z,83.40
2017-03-17T01:33:36.392Z,83.40
2017-03-17T01:34:35.308Z,83.40
2017-03-17T01:35:34.237Z,83.70
2017-03-17T01:36:33.175Z,83.80
2017-03-17T01:37:32.378Z,83.80
2017-03-17T01:38:31.265Z,83.80
2017-03-17T01:39:29.779Z,83.80
2017-03-17T01:40:28.312Z,83.80
2017-03-17T01:41:27.207Z,83.90
2017-03-17T01:42:26.111Z,83.80
2017-03-17T01:43:25.003Z,83.80
2017-03-17T01:44:23.956Z,83.60
2017-03-17T01:45:22.925Z,83.60
2017-03-17T01:46:21.861Z,83.60
2017-03-17T01:47:20.776Z,83.70
2017-03-17T01:48:19.688Z,83.70
2017-03-17T01:49:18.908Z,83.70
2017-03-17T01:50:17.828Z,83.70
2017-03-17T01:51:16.395Z,83.70
2017-03-17T01:52:15.312Z,83.70
2017-03-17T01:53:14.245Z,83.80
2017-03-17T01:54:13.173Z,84.00
2017-03-17T01:55:12.383Z,84.00
2017-03-17T01:56:10.933Z,84.00
2017-03-17T01:57:09.915Z,84.30
2017-03-17T01:58:08.826Z,84.40
2017-03-17T01:59:07.755Z,84.30
2017-03-17T02:00:07.016Z,84.40
2017-03-17T02:01:06.282Z,84.40
2017-03-17T02:02:05.273Z,84.40
2017-03-17T02:03:04.160Z,84.40
2017-03-17T02:04:03.060Z,84.40
2017-03-17T02:05:02.009Z,84.50
2017-03-17T02:06:00.501Z,84.50
2017-03-17T02:06:59.775Z,84.40
2017-03-17T02:07:58.703Z,84.50
2017-03-17T02:08:57.776Z,84.60
2017-03-17T02:09:56.376Z,84.60
2017-03-17T02:10:55.477Z,84.50
2017-03-17T02:11:54.413Z,84.40
2017-03-17T02:12:53.661Z,84.50
2017-03-17T02:13:52.678Z,84.50
2017-03-17T02:14:51.595Z,84.50
2017-03-17T02:15:50.515Z,84.50
2017-03-17T02:16:49.446Z,84.50
2017-03-17T02:17:48.388Z,84.60
2017-03-17T02:18:47.547Z,84.60
2017-03-17T02:19:46.073Z,84.60
2017-03-17T02:20:45.033Z,84.50
2017-03-17T02:21:43.566Z,84.50
2017-03-17T02:22:42.479Z,84.50
2017-03-17T02:23:41.432Z,84.50
2017-03-17T02:24:40.663Z,84.50
2017-03-17T02:25:39.620Z,84.50
2017-03-17T02:26:38.145Z,84.50
2017-03-17T02:27:36.661Z,84.50
2017-03-17T02:28:35.185Z,84.50
2017-03-17T02:29:34.069Z,84.40
2017-03-17T02:30:33.314Z,84.40
2017-03-17T02:31:32.247Z,84.40
2017-03-17T02:32:31.160Z,84.40
2017-03-17T02:33:29.705Z,84.40
2017-03-17T02:34:28.628Z,84.40
2017-03-17T02:35:27.546Z,84.50
2017-03-17T02:36:26.696Z,84.60
2017-03-17T02:37:25.615Z,84.50
2017-03-17T02:38:24.555Z,84.60
2017-03-17T02:39:23.538Z,84.60
2017-03-17T02:40:22.130Z,84.60
2017-03-17T02:41:20.729Z,84.50
2017-03-17T02:42:19.974Z,84.50
2017-03-17T02:43:18.862Z,84.60
2017-03-17T02:44:17.871Z,84.50
2017-03-17T02:45:16.788Z,84.60
2017-03-17T02:46:15.707Z,84.60
2017-03-17T02:47:14.641Z,84.80
2017-03-17T02:48:13.870Z,84.90
2017-03-17T02:49:12.873Z,84.90
2017-03-17T02:50:11.409Z,84.90
2017-03-17T02:51:10.321Z,84.80
2017-03-17T02:52:09.209Z,84.70
2017-03-17T02:53:08.113Z,84.70
2017-03-17T02:54:07.355Z,84.60
2017-03-17T02:55:06.343Z,84.60
2017-03-17T02:56:04.916Z,84.60
2017-03-17T02:57:04.190Z,84.70
2017-03-17T02:58:02.676Z,84.70
2017-03-17T02:59:01.628Z,84.70
2017-03-17T03:00:01.046Z,84.60
2017-03-17T03:01:00.061Z,84.60
2017-03-17T03:01:58.960Z,84.60
2017-03-17T03:02:57.882Z,84.60
2017-03-17T03:03:56.809Z,84.70
2017-03-17T03:04:55.323Z,84.70
2017-03-17T03:05:54.216Z,84.70
2017-03-17T03:06:53.140Z,84.60
2017-03-17T03:07:52.054Z,84.70
2017-03-17T03:08:50.941Z,84.70
2017-03-17T03:09:49.874Z,84.70
2017-03-17T03:10:48.850Z,84.80
2017-03-17T03:11:48.224Z,84.90
2017-03-17T03:12:46.716Z,84.90
2017-03-17T03:13:45.241Z,84.90
2017-03-17T03:14:44.151Z,84.80
2017-03-17T03:15:43.406Z,84.80
2017-03-17T03:16:42.389Z,85.00
2017-03-17T03:17:41.714Z,85.10
2017-03-17T03:18:41.019Z,85.30
2017-03-17T03:19:39.963Z,85.40
2017-03-17T03:20:38.905Z,85.50
2017-03-17T03:21:37.440Z,85.50
2017-03-17T03:22:36.311Z,86.00
2017-03-17T03:23:35.208Z,86.00
2017-03-17T03:24:33.713Z,86.30
2017-03-17T03:25:32.656Z,86.90
2017-03-17T03:26:31.572Z,86.70
2017-03-17T03:27:30.133Z,86.70
2017-03-17T03:28:28.642Z,86.60
2017-03-17T03:29:27.851Z,86.90
2017-03-17T03:30:26.793Z,87.00
2017-03-17T03:31:25.755Z,86.70
2017-03-17T03:32:24.296Z,86.70
2017-03-17T03:33:23.557Z,86.20
2017-03-17T03:34:22.478Z,86.10
2017-03-17T03:35:21.336Z,86.10
2017-03-17T03:36:20.240Z,85.80
2017-03-17T03:37:19.128Z,85.80
2017-03-17T03:38:17.639Z,85.80
2017-03-17T03:39:16.543Z,85.60
2017-03-17T03:40:15.509Z,85.50
2017-03-17T03:41:14.735Z,85.50
2017-03-17T03:42:13.628Z,85.50
2017-03-17T03:43:12.570Z,85.30
2017-03-17T03:44:11.539Z,85.20
2017-03-17T03:45:10.440Z,85.00
2017-03-17T03:46:09.400Z,84.90
2017-03-17T03:47:08.621Z,84.90
2017-03-17T03:48:07.569Z,84.90
2017-03-17T03:49:06.503Z,84.90
2017-03-17T03:50:05.020Z,85.00
2017-03-17T03:51:03.956Z,84.80
2017-03-17T03:52:02.884Z,84.90
2017-03-17T03:53:02.629Z,84.80
2017-03-17T03:54:01.541Z,84.70
2017-03-17T03:55:00.427Z,84.70
2017-03-17T03:55:59.328Z,84.80
2017-03-17T03:56:58.229Z,84.80
2017-03-17T03:57:57.176Z,84.80
2017-03-17T03:58:56.378Z,84.80
2017-03-17T03:59:55.424Z,84.80
2017-03-17T04:00:54.035Z,84.80
2017-03-17T04:01:52.927Z,84.80
2017-03-17T04:02:51.884Z,84.90
2017-03-17T04:03:50.838Z,85.10
2017-03-17T04:04:50.018Z,85.00
2017-03-17T04:05:48.957Z,85.10
2017-03-17T04:06:47.903Z,85.10
2017-03-17T04:07:46.812Z,85.10
2017-03-17T04:08:45.740Z,85.30
2017-03-17T04:09:44.675Z,85.40
2017-03-17T04:10:44.012Z,85.50
2017-03-17T04:11:42.964Z,85.40
2017-03-17T04:12:41.468Z,85.40
2017-03-17T04:13:39.953Z,85.50
2017-03-17T04:14:38.913Z,85.60
2017-03-17T04:15:38.177Z,85.50
2017-03-17T04:16:37.453Z,85.50
2017-03-17T04:17:36.640Z,85.50
2017-03-17T04:18:35.617Z,85.40
2017-03-17T04:19:34.179Z,85.40
2017-03-17T04:20:33.088Z,85.50
2017-03-17T04:21:32.019Z,85.50
2017-03-17T04:22:31.282Z,85.50
2017-03-17T04:23:30.219Z,85.50
2017-03-17T04:24:29.182Z,85.40
2017-03-17T04:25:28.088Z,85.30
2017-03-17T04:26:26.969Z,85.30
2017-03-17T04:27:25.888Z,85.30
2017-03-17T04:28:24.656Z,85.30
2017-03-17T04:29:23.569Z,85.30
2017-03-17T04:30:22.481Z,85.20
2017-03-17T04:31:21.397Z,85.20
2017-03-17T04:32:19.901Z,85.20
2017-03-17T04:33:18.805Z,85.40
2017-03-17T04:34:17.984Z,85.40
2017-03-17T04:35:16.531Z,85.40
2017-03-17T04:36:15.424Z,85.50
2017-03-17T04:37:14.337Z,85.40
2017-03-17T04:38:13.259Z,85.50
2017-03-17T04:39:12.130Z,85.60
2017-03-17T04:40:11.334Z,85.50
2017-03-17T04:41:10.240Z,85.50
2017-03-17T04:42:09.213Z,85.40
2017-03-17T04:43:08.100Z,85.40
2017-03-17T04:44:06.599Z,85.40
2017-03-17T04:45:05.520Z,85.30
2017-03-17T04:46:04.715Z,85.20
2017-03-17T04:47:03.691Z,85.40
2017-03-17T04:48:02.949Z,85.50
2017-03-17T04:49:01.861Z,85.60
2017-03-17T04:50:00.756Z,85.60
2017-03-17T04:50:59.655Z,85.60
2017-03-17T04:51:58.917Z,85.60
2017-03-17T04:52:57.803Z,85.50
2017-03-17T04:53:56.688Z,85.50
2017-03-17T04:54:55.639Z,85.50
2017-03-17T04:55:54.138Z,85.50
2017-03-17T04:56:53.060Z,85.50
2017-03-17T04:57:52.302Z,85.60
2017-03-17T04:58:51.301Z,85.60
2017-03-17T04:59:50.224Z,85.60
2017-03-17T05:00:49.154Z,85.60
2017-03-17T05:01:47.678Z,85.60
2017-03-17T05:02:46.566Z,85.70
2017-03-17T05:03:45.793Z,85.80
2017-03-17T05:04:44.316Z,86.00
2017-03-17T05:05:43.224Z,86.10
2017-03-17T05:06:42.168Z,86.10
2017-03-17T05:07:40.720Z,86.10
2017-03-17T05:08:39.740Z,86.10
2017-03-17T05:09:38.966Z,86.00
2017-03-17T05:10:37.864Z,86.20
2017-03-17T05:11:36.730Z,86.20
2017-03-17T05:12:35.658Z,86.30
2017-03-17T05:13:34.603Z,86.40
2017-03-17T05:14:33.564Z,86.50
2017-03-17T05:15:33.132Z,86.40
2017-03-17T05:16:32.088Z,86.50
2017-03-17T05:17:31.012Z,86.60
2017-03-17T05:18:30.021Z,86.60
2017-03-17T05:19:28.505Z,86.60
2017-03-17T05:20:27.380Z,86.40
2017-03-17T05:21:26.548Z,86.50
2017-03-17T05:22:25.048Z,86.50
2017-03-17T05:23:23.965Z,86.60
2017-03-17T05:24:22.881Z,86.60
2017-03-17T05:25:21.785Z,86.60
2017-03-17T05:26:20.695Z,86.60
2017-03-17T05:27:19.526Z,86.60
2017-03-17T05:28:18.025Z,86.70
2017-03-17T05:29:16.959Z,86.70
2017-03-17T05:30:15.893Z,86.70
2017-03-17T05:31:14.757Z,87.10
2017-03-17T05:32:13.261Z,87.10
2017-03-17T05:33:12.602Z,87.00
2017-03-17T05:34:11.521Z,87.10
2017-03-17T05:35:10.451Z,87.30
2017-03-17T05:36:09.024Z,87.30
2017-03-17T05:37:07.952Z,87.10
2017-03-17T05:38:06.468Z,87.10
2017-03-17T05:39:05.978Z,87.10
2017-03-17T05:40:04.931Z,87.10
2017-03-17T05:41:03.913Z,87.10
2017-03-17T05:42:02.796Z,87.20
2017-03-17T05:43:01.726Z,87.20
2017-03-17T05:44:00.700Z,87.20
2017-03-17T05:44:59.881Z,87.10
2017-03-17T05:45:58.780Z,87.10
2017-03-17T05:46:57.684Z,87.20
2017-03-17T05:47:56.754Z,87.20
2017-03-17T05:48:55.648Z,87.10
2017-03-17T05:49:54.222Z,87.10
2017-03-17T05:50:53.474Z,87.20
2017-03-17T05:51:52.564Z,87.10
2017-03-17T05:52:51.537Z,87.10
2017-03-17T05:53:52.125Z,87.10
2017-03-17T05:54:51.107Z,87.00
2017-03-17T05:55:50.133Z,87.00
2017-03-17T05:56:52.002Z,86.90
2017-03-17T05:57:52.213Z,86.80
2017-03-17T05:58:53.350Z,86.80
2017-03-17T05:59:51.977Z,86.80
2017-03-17T06:00:51.226Z,86.70
2017-03-17T06:01:51.708Z,86.50
2017-03-17T06:02:51.473Z,86.40
2017-03-17T06:03:50.392Z,86.30
2017-03-17T06:04:48.924Z,86.30
2017-03-17T06:05:47.834Z,86.00
2017-03-17T06:06:46.790Z,86.00
2017-03-17T06:07:48.113Z,85.80
2017-03-17T06:08:48.701Z,85.80
2017-03-17T06:09:47.233Z,85.80
2017-03-17T06:10:45.757Z,85.70
2017-03-17T06:11:44.762Z,85.60
2017-03-17T06:12:44.392Z,85.50
2017-03-17T06:13:43.699Z,85.50
2017-03-17T06:14:43.228Z,85.30
2017-03-17T06:15:42.311Z,85.40
2017-03-17T06:16:42.675Z,85.40
2017-03-17T06:17:41.700Z,85.40
2017-03-17T06:18:40.628Z,85.40
2017-03-17T06:19:39.833Z,85.40
2017-03-17T06:20:39.673Z,85.00
2017-03-17T06:21:38.685Z,84.70
2017-03-17T06:22:37.843Z,84.60
2017-03-17T06:23:37.224Z,84.50
2017-03-17T06:24:37.282Z,84.50
2017-03-17T06:25:37.137Z,84.70
2017-03-17T06:26:36.060Z,84.50
2017-03-17T06:27:34.996Z,84.30
2017-03-17T06:28:33.942Z,83.90
2017-03-17T06:29:32.904Z,83.80
2017-03-17T06:30:31.784Z,83.50
2017-03-17T06:31:31.011Z,83.70
2017-03-17T06:32:29.506Z,83.70
2017-03-17T06:33:28.002Z,83.50
2017-03-17T06:34:26.905Z,83.50
2017-03-17T06:35:25.818Z,83.40
2017-03-17T06:36:24.740Z,82.90
2017-03-17T06:37:23.995Z,81.00
2017-03-17T06:38:22.958Z,81.80
2017-03-17T06:39:21.880Z,80.70
2017-03-17T06:40:20.788Z,79.70
2017-03-17T06:41:19.793Z,79.00
2017-03-17T06:42:18.712Z,78.90
2017-03-17T06:43:17.579Z,78.90
2017-03-17T06:44:16.519Z,78.00
2017-03-17T06:45:15.425Z,77.70
2017-03-17T06:46:14.349Z,77.80
2017-03-17T06:47:13.680Z,78.00
2017-03-17T06:48:12.605Z,77.80
2017-03-17T06:49:14.542Z,77.80
2017-03-17T06:50:13.444Z,77.50
2017-03-17T06:51:12.319Z,77.60
2017-03-17T06:52:11.248Z,77.90
2017-03-17T06:53:10.206Z,78.10
2017-03-17T06:54:10.520Z,78.00
2017-03-17T06:55:09.867Z,78.60
2017-03-17T06:56:09.021Z,78.40
2017-03-17T06:57:07.980Z,78.30
2017-03-17T06:58:06.902Z,78.50
2017-03-17T06:59:05.857Z,78.50
2017-03-17T07:00:04.762Z,78.80
2017-03-17T07:01:04.652Z,78.90
2017-03-17T07:02:03.573Z,78.90
2017-03-17T07:03:02.057Z,78.90
2017-03-17T07:04:00.973Z,78.80
2017-03-17T07:04:59.889Z,79.10
2017-03-17T07:05:58.785Z,78.90
2017-03-17T07:06:58.090Z,79.10
2017-03-17T07:07:56.631Z,79.10
2017-03-17T07:08:55.558Z,78.80
2017-03-17T07:09:54.493Z,78.60
2017-03-17T07:10:53.420Z,78.70
2017-03-17T07:11:51.934Z,78.70
2017-03-17T07:12:50.745Z,78.70
2017-03-17T07:13:49.633Z,78.50
2017-03-17T07:14:48.576Z,78.50
2017-03-17T07:15:47.457Z,78.30
2017-03-17T07:16:46.730Z,78.20
2017-03-17T07:17:45.710Z,78.10
2017-03-17T07:18:45.572Z,78.30
2017-03-17T07:19:44.100Z,78.30
2017-03-17T07:20:43.005Z,77.60
2017-03-17T07:21:41.888Z,77.50
2017-03-17T07:22:40.812Z,77.30
2017-03-17T07:23:39.840Z,77.00
2017-03-17T07:24:38.992Z,76.80
2017-03-17T07:25:37.905Z,76.60
2017-03-17T07:26:36.847Z,76.60
2017-03-17T07:27:35.741Z,76.60
2017-03-17T07:28:34.631Z,76.40
2017-03-17T07:29:33.533Z,76.10
2017-03-17T07:30:32.683Z,76.00
2017-03-17T07:31:31.612Z,75.90
2017-03-17T07:32:30.136Z,75.90
2017-03-17T07:33:29.530Z,76.20
2017-03-17T07:34:28.416Z,76.50
2017-03-17T07:35:27.336Z,76.30
2017-03-17T07:36:27.209Z,76.00
2017-03-17T07:37:26.221Z,75.90
2017-03-17T07:38:25.105Z,75.40
2017-03-17T07:39:24.074Z,75.10
2017-03-17T07:40:22.966Z,75.40
2017-03-17T07:41:21.484Z,75.40
2017-03-17T07:42:20.725Z,74.90
2017-03-17T07:43:19.632Z,74.50
2017-03-17T07:44:18.549Z,74.60
2017-03-17T07:45:17.471Z,74.20
2017-03-17T07:46:16.000Z,74.20
2017-03-17T07:47:15.216Z,73.80
2017-03-17T07:48:14.436Z,73.50
2017-03-17T07:49:13.380Z,73.50
2017-03-17T07:50:12.327Z,73.10
2017-03-17T07:51:11.677Z,73.30
2017-03-17T07:52:13.428Z,73.20
2017-03-17T07:53:12.496Z,73.30
2017-03-17T07:54:13.391Z,73.10
2017-03-17T07:55:11.968Z,73.10
2017-03-17T07:56:10.907Z,73.20
2017-03-17T07:57:10.067Z,73.50
2017-03-17T07:58:09.021Z,73.20
2017-03-17T07:59:08.453Z,73.50
2017-03-17T08:00:07.392Z,73.40
2017-03-17T08:01:06.313Z,73.00
2017-03-17T08:02:05.469Z,72.60
2017-03-17T08:03:05.140Z,72.40
2017-03-17T08:04:04.063Z,72.20
2017-03-17T08:05:03.461Z,72.00
2017-03-17T08:06:02.460Z,72.00
2017-03-17T08:07:01.482Z,72.10
2017-03-17T08:08:00.464Z,72.40
2017-03-17T08:08:59.426Z,72.60
2017-03-17T08:09:58.343Z,72.70
2017-03-17T08:10:57.592Z,72.70
2017-03-17T08:11:56.104Z,72.70
2017-03-17T08:12:55.057Z,72.40
2017-03-17T08:13:54.295Z,72.60
2017-03-17T08:14:53.268Z,72.50
2017-03-17T08:15:52.580Z,72.30
2017-03-17T08:16:51.794Z,72.20
2017-03-17T08:17:50.953Z,72.10
2017-03-17T08:18:49.852Z,72.20
2017-03-17T08:19:48.378Z,72.20
2017-03-17T08:20:47.460Z,72.00
2017-03-17T08:21:46.336Z,71.60
2017-03-17T08:22:45.593Z,72.20
2017-03-17T08:23:44.517Z,72.20
2017-03-17T08:24:43.397Z,72.00
2017-03-17T08:25:42.547Z,71.80
2017-03-17T08:26:41.089Z,71.80
2017-03-17T08:27:40.008Z,71.70
2017-03-17T08:28:39.279Z,71.50
2017-03-17T08:29:38.370Z,71.30
2017-03-17T08:30:37.287Z,71.50
2017-03-17T08:31:36.188Z,71.40
2017-03-17T08:32:35.086Z,71.20
2017-03-17T08:33:33.989Z,71.30
2017-03-17T08:34:33.175Z,71.20
2017-03-17T08:35:32.076Z,71.30
2017-03-17T08:36:30.960Z,71.40
2017-03-17T08:37:29.878Z,71.40
2017-03-17T08:38:28.788Z,71.00
2017-03-17T08:39:27.703Z,71.30
2017-03-17T08:40:26.567Z,71.30
2017-03-17T08:41:25.541Z,71.40
2017-03-17T08:42:24.824Z,70.80
2017-03-17T08:43:23.732Z,71.10
2017-03-17T08:44:22.696Z,70.80
2017-03-17T08:45:21.572Z,70.30
2017-03-17T08:46:20.862Z,70.20
2017-03-17T08:47:19.795Z,70.30
2017-03-17T08:48:18.693Z,70.30
2017-03-17T08:49:17.638Z,70.50
2017-03-17T08:50:16.541Z,70.80
2017-03-17T08:51:15.464Z,70.60
2017-03-17T08:52:14.769Z,70.40
2017-03-17T08:53:13.791Z,70.20
2017-03-17T08:54:12.710Z,70.40
2017-03-17T08:55:11.253Z,70.40
2017-03-17T08:56:10.220Z,70.70
2017-03-17T08:57:09.160Z,70.70
2017-03-17T08:58:08.042Z,70.70
2017-03-17T08:59:06.996Z,71.20
2017-03-17T09:00:05.967Z,71.10
2017-03-17T09:01:04.910Z,71.20
2017-03-17T09:02:03.927Z,71.10
2017-03-17T09:03:02.485Z,71.10
2017-03-17T09:04:01.735Z,71.70
2017-03-17T09:05:01.044Z,71.90
2017-03-17T09:06:00.071Z,71.70
2017-03-17T09:06:59.012Z,71.50
2017-03-17T09:07:57.936Z,71.60
2017-03-17T09:08:56.883Z,71.40
2017-03-17T09:09:56.131Z,71.50
2017-03-17T09:10:55.083Z,71.70
2017-03-17T09:11:54.001Z,71.60
2017-03-17T09:12:52.951Z,71.70
2017-03-17T09:13:51.875Z,71.70
2017-03-17T09:14:51.106Z,71.80
2017-03-17T09:15:50.345Z,71.60
2017-03-17T09:16:49.250Z,71.40
2017-03-17T09:17:48.274Z,71.40
2017-03-17T09:18:47.239Z,71.00
2017-03-17T09:19:46.141Z,70.70
2017-03-17T09:20:45.106Z,70.60
2017-03-17T09:21:44.345Z,70.80
2017-03-17T09:22:43.241Z,71.10
2017-03-17T09:23:42.153Z,71.20
2017-03-17T09:24:41.182Z,71.10
2017-03-17T09:25:41.057Z,71.50
2017-03-17T09:26:40.056Z,71.80
2017-03-17T09:27:38.956Z,71.80
2017-03-17T09:28:37.860Z,71.90
2017-03-17T09:29:36.790Z,72.00
2017-03-17T09:30:36.977Z,72.20
2017-03-17T09:31:36.056Z,71.90
2017-03-17T09:32:34.981Z,72.00
2017-03-17T09:33:33.876Z,72.00
2017-03-17T09:34:32.404Z,72.20
2017-03-17T09:35:31.328Z,72.00
2017-03-17T09:36:30.282Z,72.20
2017-03-17T09:47:14.952Z,72.20
2017-03-17T09:48:13.837Z,73.40
2017-03-17T09:49:12.729Z,73.40
2017-03-17T09:50:11.620Z,73.40
2017-03-17T09:51:10.529Z,73.50
2017-03-17T09:52:09.036Z,73.50
2017-03-17T09:53:07.901Z,73.40
2017-03-17T09:54:07.229Z,73.20
2017-03-17T09:55:06.160Z,72.80
2017-03-17T09:56:07.184Z,72.80
2017-03-17T09:57:06.388Z,72.60
2017-03-17T09:58:05.654Z,72.10
2017-03-17T09:59:04.440Z,72.10
2017-03-17T10:00:03.020Z,72.10
2017-03-17T10:01:02.456Z,72.20
2017-03-17T10:02:01.477Z,72.00
2017-03-17T10:03:00.384Z,71.60
2017-03-17T10:03:59.285Z,71.40
2017-03-17T10:04:58.146Z,71.50
2017-03-17T10:05:57.514Z,71.10
2017-03-17T10:06:56.473Z,70.70
2017-03-17T10:07:55.465Z,70.30
2017-03-17T10:08:54.399Z,70.40
2017-03-17T10:09:53.370Z,70.40
2017-03-17T10:10:52.966Z,69.90
2017-03-17T10:11:51.988Z,69.70
2017-03-17T10:12:50.900Z,69.20
2017-03-17T10:13:49.781Z,69.10
2017-03-17T10:14:49.702Z,68.80
2017-03-17T10:15:48.979Z,68.50
2017-03-17T10:16:48.169Z,69.00
2017-03-17T10:17:47.089Z,69.30
2017-03-17T10:18:46.470Z,69.50
2017-03-17T10:19:44.979Z,69.60
2017-03-17T10:20:43.940Z,70.30
2017-03-17T10:21:42.844Z,70.80
2017-03-17T10:22:42.076Z,71.30
2017-03-17T10:23:41.152Z,71.70
2017-03-17T10:24:40.062Z,72.00
2017-03-17T10:25:38.979Z,72.30
2017-03-17T10:26:37.527Z,72.30
2017-03-17T10:27:40.899Z,72.60
2017-03-17T10:28:40.288Z,72.80
2017-03-17T10:29:39.538Z,72.80
2017-03-17T10:30:38.461Z,72.90
2017-03-17T10:31:37.374Z,73.00
2017-03-17T10:32:38.005Z,73.00
2017-03-17T10:33:39.281Z,73.10
2017-03-17T10:34:38.587Z,73.00
2017-03-17T10:35:37.105Z,73.00
2017-03-17T10:36:35.680Z,72.90
2017-03-17T10:37:34.577Z,72.60
2017-03-17T10:38:33.500Z,72.40
2017-03-17T10:39:32.423Z,72.30
2017-03-17T10:40:32.005Z,72.40
2017-03-17T10:41:31.446Z,72.40
2017-03-17T10:42:30.647Z,72.70
2017-03-17T10:43:29.554Z,72.60
2017-03-17T10:44:29.399Z,72.30
2017-03-17T10:45:33.377Z,72.20
2017-03-17T10:46:32.463Z,71.90
2017-03-17T10:47:31.017Z,71.90
2017-03-17T10:48:30.048Z,71.70
2017-03-17T10:49:29.010Z,71.80
2017-03-17T10:50:28.095Z,71.40
2017-03-17T10:51:27.455Z,71.40
2017-03-17T10:52:26.393Z,70.80
2017-03-17T10:53:25.318Z,70.50
2017-03-17T10:54:23.852Z,70.50
2017-03-17T10:55:22.748Z,70.40
2017-03-17T10:56:21.655Z,70.40
2017-03-17T10:57:20.524Z,70.30
2017-03-17T10:58:19.484Z,70.20
2017-03-17T10:59:17.988Z,70.30
2017-03-17T11:00:17.039Z,69.90
2017-03-17T11:01:15.628Z,69.90
2017-03-17T11:02:15.307Z,69.90
2017-03-17T11:03:14.260Z,70.00
2017-03-17T11:04:13.394Z,69.90
2017-03-17T11:05:12.297Z,69.80
2017-03-17T11:06:11.226Z,70.20
2017-03-17T11:07:10.186Z,70.00
2017-03-17T11:08:09.018Z,70.00
2017-03-17T11:09:09.014Z,69.90
2017-03-17T11:10:07.929Z,69.90
2017-03-17T11:11:06.918Z,69.80
2017-03-17T11:12:05.854Z,70.00
2017-03-17T11:13:04.800Z,69.90
2017-03-17T11:14:04.048Z,70.10
2017-03-17T11:15:02.641Z,70.10
2017-03-17T11:16:01.195Z,70.20
2017-03-17T11:17:00.444Z,70.20
2017-03-17T11:17:59.464Z,69.80
2017-03-17T11:18:58.377Z,70.40
2017-03-17T11:19:57.635Z,69.50
2017-03-17T11:20:56.575Z,69.10
2017-03-17T11:21:55.530Z,68.90
2017-03-17T11:22:54.457Z,68.60
2017-03-17T11:23:53.376Z,68.70
2017-03-17T11:24:52.301Z,68.80
2017-03-17T11:25:51.483Z,68.50
2017-03-17T11:26:50.440Z,68.50
2017-03-17T11:27:49.045Z,68.50
2017-03-17T11:28:47.623Z,68.70
2017-03-17T11:29:46.606Z,68.70
2017-03-17T11:30:45.533Z,68.90
2017-03-17T11:31:44.799Z,69.30
2017-03-17T11:32:43.739Z,69.10
2017-03-17T11:33:42.630Z,69.00
2017-03-17T11:34:41.507Z,69.00
2017-03-17T11:35:40.430Z,69.20
2017-03-17T11:36:38.944Z,69.20
2017-03-17T11:37:37.780Z,69.30
2017-03-17T11:38:36.779Z,68.80
2017-03-17T11:39:35.704Z,69.00
2017-03-17T11:40:34.877Z,68.60
2017-03-17T11:41:33.804Z,69.00
2017-03-17T11:42:32.751Z,69.00
2017-03-17T11:43:31.992Z,69.10
2017-03-17T11:44:30.898Z,69.40
2017-03-17T11:45:29.819Z,69.40
2017-03-17T11:46:28.751Z,69.50
2017-03-17T11:47:27.700Z,69.60
2017-03-17T11:48:26.646Z,69.20
2017-03-17T11:49:25.883Z,69.50
2017-03-17T11:50:24.857Z,69.40
2017-03-17T11:51:24.176Z,69.60
2017-03-17T11:52:23.328Z,69.80
2017-03-17T11:53:22.237Z,69.70
2017-03-17T11:54:21.178Z,69.50
2017-03-17T11:55:20.086Z,69.50
2017-03-17T11:56:19.552Z,69.80
2017-03-17T11:57:18.465Z,69.90
2017-03-17T11:58:17.392Z,69.80
2017-03-17T11:59:16.358Z,70.00
2017-03-17T12:00:15.280Z,69.90
2017-03-17T12:01:14.480Z,70.00
2017-03-17T12:02:12.976Z,70.00
2017-03-17T12:03:11.469Z,69.40
2017-03-17T12:04:10.467Z,69.60
2017-03-17T12:05:09.399Z,69.40
2017-03-17T12:06:08.291Z,69.50
2017-03-17T12:07:07.564Z,69.60
2017-03-17T12:08:06.081Z,69.60
2017-03-17T12:09:05.851Z,69.60
2017-03-17T12:10:04.751Z,69.60
2017-03-17T12:11:03.555Z,69.60
2017-03-17T12:12:02.548Z,69.50
2017-03-17T12:13:01.877Z,69.60
2017-03-17T12:14:00.796Z,69.30
2017-03-17T12:15:00.496Z,69.20
2017-03-17T12:15:59.416Z,69.30
2017-03-17T12:16:58.668Z,69.00
2017-03-17T12:17:57.580Z,68.70
2017-03-17T12:18:59.004Z,69.20
2017-03-17T12:19:59.197Z,69.00
2017-03-17T12:20:58.124Z,69.00
2017-03-17T12:21:57.040Z,68.90
2017-03-17T12:22:55.613Z,68.90
2017-03-17T12:23:54.162Z,69.20
2017-03-17T12:24:53.451Z,69.00
2017-03-17T12:25:52.405Z,68.70
2017-03-17T12:26:51.360Z,68.50
2017-03-17T12:27:50.258Z,68.50
2017-03-17T12:28:49.460Z,68.40
2017-03-17T12:29:48.373Z,68.80
2017-03-17T12:30:47.613Z,68.40
2017-03-17T12:31:46.558Z,68.50
2017-03-17T12:32:45.490Z,68.00
2017-03-17T12:33:44.405Z,67.60
2017-03-17T12:34:43.356Z,67.20
2017-03-17T12:35:42.501Z,66.90
2017-03-17T12:36:41.990Z,66.10
2017-03-17T12:37:40.906Z,65.50
2017-03-17T12:38:40.410Z,65.10
2017-03-17T12:39:40.361Z,64.60
2017-03-17T12:40:40.038Z,64.90
2017-03-17T12:41:38.604Z,64.90
2017-03-17T12:42:37.829Z,64.50
2017-03-17T12:43:36.852Z,64.50
2017-03-17T12:44:35.802Z,64.50
2017-03-17T12:45:34.732Z,64.50
2017-03-17T12:46:33.632Z,64.30
2017-03-17T12:47:33.465Z,64.20
2017-03-17T12:48:32.322Z,64.20
2017-03-17T12:49:31.240Z,64.30